createdAt,value
2017-08-26T00:01:36.687Z,99.90
2017-08-26T00:04:05.124Z,99.90
2017-08-26T00:06:33.551Z,99.90
2017-08-26T00:09:01.810Z,99.90
2017-08-26T00:11:30.249Z,99.90
2017-08-26T00:13:58.728Z,99.90
2017-08-26T00:16:27.183Z,99.90
2017-08-26T00:18:55.650Z,99.90
2017-08-26T00:21:24.377Z,99.90
2017-08-26T00:23:52.798Z,99.90
2017-08-26T00:26:21.265Z,99.90
2017-08-26T00:28:49.697Z,99.90
2017-08-26T00:31:18.132Z,99.90
2017-08-26T00:33:46.580Z,99.90
2017-08-26T00:36:15.041Z,99.90
2017-08-26T00:38:43.484Z,99.90
2017-08-26T00:41:11.942Z,99.90
2017-08-26T00:43:40.361Z,99.90
2017-08-26T00:46:08.773Z,99.90
2017-08-26T00:48:37.227Z,99.90
2017-08-26T00:51:05.724Z,99.90
2017-08-26T00:53:34.142Z,99.90
2017-08-26T00:56:02.596Z,99.90
2017-08-26T00:58:31.021Z,99.90
2017-08-26T01:00:59.105Z,99.90
2017-08-26T01:03:27.213Z,99.90
2017-08-26T01:05:55.635Z,99.90
2017-08-26T01:08:24.088Z,99.90
2017-08-26T01:10:52.172Z,99.90
2017-08-26T01:13:20.601Z,99.90
2017-08-26T01:15:49.030Z,99.90
2017-08-26T01:18:17.476Z,99.90
2017-08-26T01:20:45.922Z,99.90
2017-08-26T01:23:14.393Z,99.90
2017-08-26T01:25:42.835Z,99.90
2017-08-26T01:28:11.264Z,99.90
2017-08-26T01:30:39.681Z,99.90
2017-08-26T01:33:08.105Z,99.90
2017-08-26T01:35:36.529Z,99.90
2017-08-26T01:38:05.200Z,99.90
2017-08-26T01:40:33.918Z,99.90
2017-08-26T01:43:02.352Z,99.90
2017-08-26T01:45:30.779Z,99.90
2017-08-26T01:47:59.219Z,99.90
2017-08-26T01:50:27.709Z,99.90
2017-08-26T01:52:55.780Z,99.90
2017-08-26T01:55:24.234Z,99.90
2017-08-26T01:57:52.782Z,99.90
2017-08-26T02:00:21.917Z,99.90
2017-08-26T02:02:50.374Z,99.90
2017-08-26T02:05:18.787Z,99.90
2017-08-26T02:07:47.273Z,99.90
2017-08-26T02:10:15.704Z,99.90
2017-08-26T02:12:44.133Z,99.90
2017-08-26T02:15:12.563Z,99.90
2017-08-26T02:17:41.022Z,99.90
2017-08-26T02:20:09.473Z,99.90
2017-08-26T02:22:37.969Z,99.90
2017-08-26T02:25:06.405Z,99.90
2017-08-26T02:27:34.897Z,99.90
2017-08-26T02:30:03.325Z,99.90
2017-08-26T02:32:31.768Z,99.90
2017-08-26T02:35:00.201Z,99.90
2017-08-26T02:37:28.638Z,99.90
2017-08-26T02:39:57.087Z,99.90
2017-08-26T02:42:25.510Z,99.90
2017-08-26T02:44:53.939Z,99.90
2017-08-26T02:47:22.376Z,99.90
2017-08-26T02:49:50.792Z,99.90
2017-08-26T02:52:19.234Z,99.90
2017-08-26T02:54:47.680Z,99.90
2017-08-26T02:57:16.355Z,99.90
2017-08-26T02:59:44.789Z,99.90
2017-08-26T03:02:13.437Z,99.90
2017-08-26T03:04:41.860Z,99.90
2017-08-26T03:07:10.302Z,99.90
2017-08-26T03:09:38.756Z,99.90
2017-08-26T03:12:07.963Z,99.90
2017-08-26T03:14:36.410Z,99.90
2017-08-26T03:17:04.853Z,99.90
2017-08-26T03:19:33.265Z,99.90
2017-08-26T03:22:01.717Z,99.90
2017-08-26T03:24:30.152Z,99.90
2017-08-26T03:26:58.576Z,99.90
2017-08-26T03:29:26.991Z,99.90
2017-08-26T03:31:55.465Z,99.90
2017-08-26T03:34:23.899Z,99.90
2017-08-26T03:36:52.578Z,99.90
2017-08-26T03:39:21.029Z,99.90
2017-08-26T03:41:49.448Z,99.90
2017-08-26T03:44:17.863Z,99.90
2017-08-26T03:46:46.318Z,99.90
2017-08-26T03:49:14.757Z,99.90
2017-08-26T03:51:43.175Z,99.90
2017-08-26T03:54:11.625Z,99.90
2017-08-26T03:56:40.904Z,99.90
2017-08-26T03:59:09.328Z,99.90
2017-08-26T04:01:37.776Z,99.90
2017-08-26T04:04:06.192Z,99.90
2017-08-26T04:06:34.615Z,99.90
2017-08-26T04:09:03.061Z,99.90
2017-08-26T04:11:31.481Z,99.90
2017-08-26T04:13:59.892Z,99.90
2017-08-26T04:16:28.337Z,99.90
2017-08-26T04:18:56.750Z,99.90
2017-08-26T04:21:25.166Z,99.90
2017-08-26T04:23:53.606Z,99.90
2017-08-26T04:26:22.018Z,99.90
2017-08-26T04:28:50.437Z,99.90
2017-08-26T04:31:18.898Z,99.90
2017-08-26T04:33:47.311Z,99.90
2017-08-26T04:36:15.868Z,99.90
2017-08-26T04:38:44.904Z,99.90
2017-08-26T04:41:13.321Z,99.90
2017-08-26T04:43:41.726Z,99.90
2017-08-26T04:46:10.171Z,99.90
2017-08-26T04:48:38.589Z,99.90
2017-08-26T04:51:07.000Z,99.90
2017-08-26T04:53:35.452Z,99.90
2017-08-26T04:56:03.931Z,99.90
2017-08-26T04:58:32.356Z,99.90
2017-08-26T05:01:01.009Z,99.90
2017-08-26T05:03:29.422Z,99.90
2017-08-26T05:05:57.852Z,99.90
2017-08-26T05:08:26.537Z,99.90
2017-08-26T05:10:55.015Z,99.90
2017-08-26T05:13:23.436Z,99.90
2017-08-26T05:15:51.901Z,99.90
2017-08-26T05:18:20.331Z,99.90
2017-08-26T05:20:48.756Z,99.90
2017-08-26T05:23:17.223Z,99.90
2017-08-26T05:25:45.648Z,99.90
2017-08-26T05:28:14.095Z,99.90
2017-08-26T05:30:42.536Z,99.90
2017-08-26T05:33:11.733Z,99.90
2017-08-26T05:35:40.149Z,99.90
2017-08-26T05:38:08.581Z,99.90
2017-08-26T05:40:36.801Z,99.90
2017-08-26T05:43:05.229Z,99.90
2017-08-26T05:45:33.684Z,99.90
2017-08-26T05:48:02.104Z,99.90
2017-08-26T05:50:30.535Z,99.90
2017-08-26T05:52:58.968Z,99.90
2017-08-26T05:55:27.392Z,99.90
2017-08-26T05:57:55.811Z,99.90
2017-08-26T06:00:24.074Z,99.90
2017-08-26T06:02:52.512Z,99.90
2017-08-26T06:05:20.932Z,99.90
2017-08-26T06:07:49.405Z,99.90
2017-08-26T06:10:17.841Z,99.90
2017-08-26T06:12:46.261Z,99.90
2017-08-26T06:15:14.723Z,99.90
2017-08-26T06:17:43.148Z,99.90
2017-08-26T06:20:11.570Z,99.90
2017-08-26T06:22:40.002Z,99.90
2017-08-26T06:25:08.437Z,99.90
2017-08-26T06:27:36.861Z,99.90
2017-08-26T06:30:05.317Z,99.90
2017-08-26T06:32:33.733Z,99.90
2017-08-26T06:35:02.165Z,99.90
2017-08-26T06:37:30.636Z,99.90
2017-08-26T06:39:59.074Z,99.90
2017-08-26T06:42:27.496Z,99.90
2017-08-26T06:44:55.945Z,99.90
2017-08-26T06:47:24.377Z,99.90
2017-08-26T06:49:52.801Z,99.90
2017-08-26T06:52:21.576Z,99.90
2017-08-26T06:54:50.250Z,99.90
2017-08-26T06:57:18.741Z,99.90
2017-08-26T06:59:47.282Z,99.90
2017-08-26T07:02:15.701Z,99.90
2017-08-26T07:04:44.150Z,99.90
2017-08-26T07:07:12.593Z,99.90
2017-08-26T07:09:41.432Z,99.90
2017-08-26T07:12:10.776Z,99.90
2017-08-26T07:14:39.247Z,99.90
2017-08-26T07:17:08.290Z,99.90
2017-08-26T07:19:36.821Z,99.90
2017-08-26T07:22:05.657Z,99.90
2017-08-26T07:24:34.079Z,99.90
2017-08-26T07:27:03.209Z,99.90
2017-08-26T07:29:31.886Z,99.90
2017-08-26T07:32:00.664Z,99.90
2017-08-26T07:34:29.766Z,99.90
2017-08-26T07:36:58.384Z,99.90
2017-08-26T07:39:27.068Z,99.90
2017-08-26T07:41:55.594Z,99.90
2017-08-26T07:44:24.046Z,99.90
2017-08-26T07:46:52.537Z,99.90
2017-08-26T07:49:22.583Z,99.90
2017-08-26T07:51:51.148Z,99.90
2017-08-26T07:54:19.795Z,99.70
2017-08-26T07:56:48.574Z,99.50
2017-08-26T07:59:17.236Z,99.60
2017-08-26T08:01:45.801Z,99.50
2017-08-26T08:04:14.321Z,99.50
2017-08-26T08:06:42.820Z,99.80
2017-08-26T08:09:12.866Z,99.80
2017-08-26T08:11:41.575Z,99.60
2017-08-26T08:14:10.492Z,99.60
2017-08-26T08:16:39.012Z,99.80
2017-08-26T08:19:07.767Z,99.50
2017-08-26T08:21:36.675Z,99.10
2017-08-26T08:24:05.891Z,98.20
2017-08-26T08:26:34.685Z,98.20
2017-08-26T08:29:03.223Z,98.10
2017-08-26T08:31:31.676Z,96.70
2017-08-26T08:34:00.132Z,96.70
2017-08-26T08:36:29.508Z,95.90
2017-08-26T08:38:57.982Z,94.80
2017-08-26T08:41:26.518Z,94.70
2017-08-26T08:43:55.434Z,95.40
2017-08-26T08:46:24.032Z,95.80
2017-08-26T08:48:52.461Z,96.30
2017-08-26T08:51:20.928Z,97.00
2017-08-26T08:53:49.344Z,96.90
2017-08-26T08:56:17.580Z,95.20
2017-08-26T08:58:46.029Z,94.10
2017-08-26T09:01:14.449Z,93.40
2017-08-26T09:03:43.133Z,93.60
2017-08-26T09:06:11.581Z,93.60
2017-08-26T09:08:40.009Z,94.30
2017-08-26T09:11:09.262Z,94.80
2017-08-26T09:13:37.808Z,94.80
2017-08-26T09:16:06.257Z,95.70
2017-08-26T09:18:34.673Z,95.50
2017-08-26T09:21:03.321Z,95.60
2017-08-26T09:23:32.205Z,96.10
2017-08-26T09:26:00.644Z,96.50
2017-08-26T09:28:29.072Z,97.00
2017-08-26T09:30:57.533Z,96.30
2017-08-26T09:33:26.066Z,95.40
2017-08-26T09:35:54.561Z,94.40
2017-08-26T09:38:23.529Z,91.50
2017-08-26T09:40:52.957Z,91.40
2017-08-26T09:43:21.609Z,91.40
2017-08-26T09:45:50.801Z,92.50
2017-08-26T09:48:19.326Z,92.60
2017-08-26T09:50:47.768Z,93.00
2017-08-26T09:53:16.205Z,91.10
2017-08-26T09:55:44.735Z,88.80
2017-08-26T09:58:13.269Z,85.50
2017-08-26T10:00:41.558Z,83.80
2017-08-26T10:03:09.993Z,83.10
2017-08-26T10:05:38.442Z,84.10
2017-08-26T10:08:06.896Z,82.20
2017-08-26T10:10:35.320Z,79.10
2017-08-26T10:13:03.764Z,83.10
2017-08-26T10:15:32.443Z,82.70
2017-08-26T10:18:00.875Z,81.50
2017-08-26T10:20:29.328Z,79.90
2017-08-26T10:22:57.783Z,81.70
2017-08-26T10:25:26.239Z,82.90
2017-08-26T10:27:54.693Z,83.00
2017-08-26T10:30:22.942Z,82.10
2017-08-26T10:32:51.189Z,82.20
2017-08-26T10:35:19.456Z,82.50
2017-08-26T10:37:47.688Z,83.30
2017-08-26T10:40:15.916Z,83.30
2017-08-26T10:42:44.176Z,83.20
2017-08-26T10:45:12.423Z,82.30
2017-08-26T10:47:41.329Z,81.30
2017-08-26T10:50:09.682Z,82.90
2017-08-26T10:52:37.945Z,81.70
2017-08-26T10:55:06.380Z,81.00
2017-08-26T10:57:34.903Z,81.70
2017-08-26T11:00:04.099Z,81.70
2017-08-26T11:02:32.518Z,81.80
2017-08-26T11:05:01.521Z,81.70
2017-08-26T11:07:29.985Z,81.70
2017-08-26T11:09:58.404Z,81.40
2017-08-26T11:12:26.901Z,81.60
2017-08-26T11:14:55.338Z,82.20
2017-08-26T11:17:23.797Z,84.00
2017-08-26T11:19:52.264Z,84.20
2017-08-26T11:22:20.706Z,85.90
2017-08-26T11:24:49.127Z,86.20
2017-08-26T11:27:17.389Z,86.00
2017-08-26T11:29:45.832Z,85.70
2017-08-26T11:32:14.272Z,87.90
2017-08-26T11:34:42.703Z,88.30
2017-08-26T11:37:11.127Z,87.70
2017-08-26T11:39:41.028Z,89.20
2017-08-26T11:42:09.481Z,89.20
2017-08-26T11:44:37.937Z,88.70
2017-08-26T11:47:06.360Z,88.10
2017-08-26T11:49:34.822Z,86.20
2017-08-26T11:52:03.285Z,85.90
2017-08-26T11:54:31.688Z,85.80
2017-08-26T11:57:00.121Z,86.00
2017-08-26T11:59:28.569Z,87.30
2017-08-26T12:01:57.066Z,86.90
2017-08-26T12:04:25.573Z,87.20
2017-08-26T12:06:54.006Z,88.00
2017-08-26T12:09:22.426Z,88.90
2017-08-26T12:11:50.918Z,89.10
2017-08-26T12:14:19.354Z,89.70
2017-08-26T12:16:47.789Z,90.00
2017-08-26T12:19:16.244Z,89.40
2017-08-26T12:21:44.679Z,89.40
2017-08-26T12:24:13.108Z,90.10
2017-08-26T12:26:41.562Z,90.60
2017-08-26T12:29:09.994Z,90.10
2017-08-26T12:31:38.669Z,88.90
2017-08-26T12:34:07.133Z,88.00
2017-08-26T12:36:35.569Z,88.00
2017-08-26T12:39:03.468Z,86.30
2017-08-26T12:41:31.728Z,85.80
2017-08-26T12:44:01.088Z,85.20
2017-08-26T12:46:29.509Z,85.20
2017-08-26T12:48:57.953Z,85.70
2017-08-26T12:51:26.386Z,83.90
2017-08-26T12:53:54.801Z,85.00
2017-08-26T12:56:23.257Z,84.10
2017-08-26T12:58:51.670Z,84.80
2017-08-26T13:01:20.088Z,85.20
2017-08-26T13:03:48.581Z,83.90
2017-08-26T13:06:17.105Z,84.20
2017-08-26T13:08:45.527Z,83.60
2017-08-26T13:11:13.984Z,82.50
2017-08-26T13:13:42.421Z,82.50
2017-08-26T13:16:10.881Z,82.60
2017-08-26T13:18:39.366Z,81.80
2017-08-26T13:21:07.837Z,81.90
2017-08-26T13:23:36.271Z,82.00
2017-08-26T13:26:04.701Z,81.30
2017-08-26T13:28:33.133Z,81.50
2017-08-26T13:31:01.576Z,80.60
2017-08-26T13:33:30.002Z,79.70
2017-08-26T13:35:58.454Z,79.50
2017-08-26T13:38:26.963Z,79.80
2017-08-26T13:40:55.410Z,78.90
2017-08-26T13:43:23.845Z,78.20
2017-08-26T13:45:52.253Z,77.50
2017-08-26T13:48:21.283Z,78.60
2017-08-26T13:50:49.732Z,79.00
2017-08-26T13:53:18.150Z,78.70
2017-08-26T13:55:46.602Z,79.50
2017-08-26T13:58:15.810Z,79.50
2017-08-26T14:00:44.252Z,79.50
2017-08-26T14:03:12.698Z,79.30
2017-08-26T14:05:41.167Z,80.20
2017-08-26T14:08:09.573Z,80.40
2017-08-26T14:10:38.008Z,80.80
2017-08-26T14:13:06.420Z,80.50
2017-08-26T14:15:34.855Z,81.40
2017-08-26T14:18:03.331Z,81.60
2017-08-26T14:20:31.749Z,80.10
2017-08-26T14:23:00.173Z,80.90
2017-08-26T14:25:28.616Z,83.00
2017-08-26T14:27:57.045Z,82.00
2017-08-26T14:30:25.496Z,81.70
2017-08-26T14:32:53.936Z,81.00
2017-08-26T14:35:22.357Z,81.20
2017-08-26T14:37:50.781Z,81.60
2017-08-26T14:40:19.225Z,80.60
2017-08-26T14:42:47.654Z,79.60
2017-08-26T14:45:16.099Z,79.70
2017-08-26T14:47:44.542Z,79.60
2017-08-26T14:50:12.995Z,78.60
2017-08-26T14:52:41.423Z,80.10
2017-08-26T14:55:09.875Z,80.00
2017-08-26T14:57:38.293Z,80.70
2017-08-26T15:00:06.722Z,80.30
2017-08-26T15:02:35.168Z,80.10
2017-08-26T15:05:03.599Z,80.40
2017-08-26T15:07:32.025Z,81.10
2017-08-26T15:10:00.477Z,80.50
2017-08-26T15:12:28.909Z,80.10
2017-08-26T15:14:57.333Z,81.30
2017-08-26T15:17:25.788Z,79.50
2017-08-26T15:19:54.189Z,78.80
2017-08-26T15:22:22.613Z,78.50
2017-08-26T15:24:51.064Z,79.00
2017-08-26T15:27:20.195Z,80.70
2017-08-26T15:29:48.613Z,81.80
2017-08-26T15:32:17.083Z,81.50
2017-08-26T15:34:45.541Z,81.30
2017-08-26T15:37:13.972Z,81.90
2017-08-26T15:39:42.404Z,81.70
2017-08-26T15:42:10.854Z,80.50
2017-08-26T15:44:39.299Z,80.50
2017-08-26T15:47:07.764Z,82.00
2017-08-26T15:49:36.197Z,81.60
2017-08-26T15:52:04.649Z,81.80
2017-08-26T15:54:33.131Z,82.10
2017-08-26T15:57:01.552Z,79.90
2017-08-26T15:59:29.996Z,79.20
2017-08-26T16:01:58.697Z,81.10
2017-08-26T16:04:27.160Z,80.00
2017-08-26T16:06:55.582Z,78.90
2017-08-26T16:09:24.161Z,79.80
2017-08-26T16:11:52.588Z,80.20
2017-08-26T16:14:21.030Z,79.60
2017-08-26T16:16:49.490Z,78.10
2017-08-26T16:19:17.913Z,77.70
2017-08-26T16:21:46.345Z,77.00
2017-08-26T16:24:15.003Z,78.30
2017-08-26T16:26:43.428Z,79.10
2017-08-26T16:29:11.876Z,79.40
2017-08-26T16:31:40.316Z,77.10
2017-08-26T16:34:08.747Z,78.10
2017-08-26T16:36:37.309Z,78.40
2017-08-26T16:39:05.441Z,79.20
2017-08-26T16:41:33.978Z,79.00
2017-08-26T16:44:02.401Z,77.40
2017-08-26T16:46:30.854Z,76.30
2017-08-26T16:48:59.297Z,77.90
2017-08-26T16:51:27.726Z,76.30
2017-08-26T16:53:56.261Z,77.20
2017-08-26T16:56:24.687Z,76.20
2017-08-26T16:58:53.141Z,76.40
2017-08-26T17:01:21.584Z,76.00
2017-08-26T17:03:50.029Z,76.30
2017-08-26T17:06:18.448Z,77.00
2017-08-26T17:08:46.915Z,76.30
2017-08-26T17:11:16.029Z,75.50
2017-08-26T17:13:44.473Z,75.40
2017-08-26T17:16:12.917Z,76.50
2017-08-26T17:18:41.341Z,76.90
2017-08-26T17:21:09.770Z,77.70
2017-08-26T17:23:38.222Z,77.10
2017-08-26T17:26:06.654Z,78.80
2017-08-26T17:28:35.081Z,75.70
2017-08-26T17:31:04.237Z,75.20
2017-08-26T17:33:32.717Z,75.80
2017-08-26T17:36:01.137Z,75.40
2017-08-26T17:38:29.622Z,74.40
2017-08-26T17:40:58.085Z,75.70
2017-08-26T17:43:26.465Z,74.80
2017-08-26T17:45:54.945Z,74.80
2017-08-26T17:48:23.417Z,73.40
2017-08-26T17:50:51.842Z,74.10
2017-08-26T17:53:20.296Z,74.30
2017-08-26T17:55:49.920Z,74.60
2017-08-26T17:58:18.341Z,74.90
2017-08-26T18:00:46.815Z,74.30
2017-08-26T18:03:15.241Z,74.60
2017-08-26T18:05:43.673Z,75.10
2017-08-26T18:08:12.112Z,75.50
2017-08-26T18:10:40.540Z,76.10
2017-08-26T18:13:08.970Z,75.90
2017-08-26T18:15:37.409Z,76.00
2017-08-26T18:18:05.902Z,76.80
2017-08-26T18:20:34.321Z,77.20
2017-08-26T18:23:02.792Z,76.90
2017-08-26T18:25:31.219Z,77.10
2017-08-26T18:27:59.654Z,77.20
2017-08-26T18:30:28.045Z,77.90
2017-08-26T18:32:56.498Z,78.00
2017-08-26T18:35:24.933Z,78.20
2017-08-26T18:37:53.381Z,78.50
2017-08-26T18:40:21.796Z,78.30
2017-08-26T18:42:50.239Z,78.80
2017-08-26T18:45:18.688Z,79.20
2017-08-26T18:47:47.160Z,78.80
2017-08-26T18:50:15.573Z,79.00
2017-08-26T18:52:44.015Z,79.00
2017-08-26T18:55:12.446Z,78.80
2017-08-26T18:57:40.874Z,78.90
2017-08-26T19:00:09.341Z,79.00
2017-08-26T19:02:37.794Z,78.50
2017-08-26T19:05:06.214Z,78.80
2017-08-26T19:07:34.678Z,79.50
2017-08-26T19:10:03.123Z,79.30
2017-08-26T19:12:31.564Z,79.20
2017-08-26T19:15:00.008Z,78.30
2017-08-26T19:17:28.432Z,78.10
2017-08-26T19:19:56.874Z,78.40
2017-08-26T19:22:25.346Z,79.80
2017-08-26T19:24:53.777Z,80.80
2017-08-26T19:27:22.213Z,81.00
2017-08-26T19:29:50.673Z,79.90
2017-08-26T19:32:19.188Z,80.40
2017-08-26T19:34:47.626Z,80.30
2017-08-26T19:37:16.090Z,80.70
2017-08-26T19:39:44.583Z,80.30
2017-08-26T19:42:12.998Z,79.60
2017-08-26T19:44:41.454Z,79.30
2017-08-26T19:47:09.892Z,80.00
2017-08-26T19:49:38.328Z,80.20
2017-08-26T19:52:07.736Z,80.20
2017-08-26T19:54:36.178Z,80.70
2017-08-26T19:57:04.660Z,80.70
2017-08-26T19:59:33.119Z,80.20
2017-08-26T20:02:01.553Z,80.20
2017-08-26T20:04:29.987Z,80.50
2017-08-26T20:06:58.453Z,80.20
2017-08-26T20:09:26.907Z,80.50
2017-08-26T20:11:55.342Z,80.10
2017-08-26T20:14:23.851Z,81.20
2017-08-26T20:16:52.321Z,81.90
2017-08-26T20:19:20.821Z,83.10
2017-08-26T20:21:49.325Z,83.20
2017-08-26T20:24:17.737Z,83.20
2017-08-26T20:26:46.176Z,82.90
2017-08-26T20:29:14.649Z,84.00
2017-08-26T20:31:43.101Z,83.30
2017-08-26T20:34:11.344Z,83.30
2017-08-26T20:36:39.619Z,82.90
2017-08-26T20:39:08.081Z,82.70
2017-08-26T20:41:36.555Z,83.00
2017-08-26T20:44:05.017Z,83.30
2017-08-26T20:46:33.432Z,83.40
2017-08-26T20:49:01.868Z,83.40
2017-08-26T20:51:30.340Z,83.50
2017-08-26T20:53:58.769Z,84.50
2017-08-26T20:56:27.051Z,84.90
2017-08-26T20:58:55.353Z,84.80
2017-08-26T21:01:23.592Z,84.30
2017-08-26T21:03:51.850Z,85.10
2017-08-26T21:06:20.114Z,85.90
2017-08-26T21:08:48.561Z,86.50
2017-08-26T21:11:16.968Z,86.50
2017-08-26T21:13:45.410Z,86.40
2017-08-26T21:16:13.879Z,86.50
2017-08-26T21:18:42.289Z,86.80
2017-08-26T21:21:10.783Z,86.50
2017-08-26T21:23:39.457Z,85.90
2017-08-26T21:26:07.881Z,86.40
2017-08-26T21:28:36.326Z,86.30
2017-08-26T21:31:04.753Z,86.70
2017-08-26T21:33:33.194Z,87.00
2017-08-26T21:36:01.652Z,86.80
2017-08-26T21:38:30.064Z,86.90
2017-08-26T21:40:58.511Z,87.70
2017-08-26T21:43:31.302Z,88.50
2017-08-26T21:45:59.732Z,89.20
2017-08-26T21:48:28.167Z,88.20
2017-08-26T21:50:56.630Z,88.60
2017-08-26T21:53:25.173Z,88.60
2017-08-26T21:55:53.407Z,88.50
2017-08-26T21:58:21.886Z,88.90
2017-08-26T22:00:50.312Z,89.20
2017-08-26T22:03:18.771Z,89.00
2017-08-26T22:05:47.225Z,89.30
2017-08-26T22:08:16.422Z,89.70
2017-08-26T22:10:44.871Z,89.60
2017-08-26T22:13:14.100Z,89.00
2017-08-26T22:15:42.516Z,89.00
2017-08-26T22:18:10.959Z,88.80
2017-08-26T22:20:39.416Z,88.60
2017-08-26T22:23:08.602Z,88.60
2017-08-26T22:25:37.725Z,88.60
2017-08-26T22:28:06.187Z,88.90
2017-08-26T22:30:34.617Z,89.10
2017-08-26T22:33:03.041Z,89.10
2017-08-26T22:35:31.506Z,89.80
2017-08-26T22:37:59.920Z,90.00
2017-08-26T22:40:28.352Z,89.10
2017-08-26T22:42:56.797Z,88.90
2017-08-26T22:45:25.332Z,89.40
2017-08-26T22:47:53.765Z,89.10
2017-08-26T22:50:22.201Z,89.80
2017-08-26T22:52:50.645Z,89.80
2017-08-26T22:55:18.871Z,90.10
2017-08-26T22:57:47.316Z,90.70
2017-08-26T23:00:15.411Z,90.20
2017-08-26T23:02:43.846Z,89.50
2017-08-26T23:05:14.269Z,88.30
2017-08-26T23:07:42.697Z,89.60
2017-08-26T23:10:11.137Z,89.50
2017-08-26T23:12:39.580Z,89.60
2017-08-26T23:15:08.017Z,90.10
2017-08-26T23:17:36.444Z,90.20
2017-08-26T23:20:04.944Z,89.70
2017-08-26T23:22:33.401Z,89.20
2017-08-26T23:25:01.815Z,90.00
2017-08-26T23:27:30.286Z,89.70
2017-08-26T23:29:58.731Z,90.10
2017-08-26T23:32:27.220Z,89.80
2017-08-26T23:34:55.670Z,89.90
2017-08-26T23:37:24.097Z,89.30
2017-08-26T23:39:52.533Z,89.20
2017-08-26T23:42:20.989Z,89.30
2017-08-26T23:44:49.417Z,89.40
2017-08-26T23:47:17.640Z,90.10
2017-08-26T23:49:46.108Z,90.40
2017-08-26T23:52:14.548Z,90.60
2017-08-26T23:54:42.969Z,91.00
2017-08-26T23:57:11.412Z,91.20
2017-08-26T23:59:39.889Z,91.60
